createdAt,value
2018-09-25T01:19:56.692Z,9.00
2018-09-25T01:22:30.681Z,6.60
2018-09-25T01:25:04.510Z,6.60
2018-09-25T01:27:38.506Z,6.50
2018-09-25T01:30:12.485Z,6.50
2018-09-25T01:32:46.185Z,6.50
2018-09-25T01:35:19.991Z,6.50
2018-09-25T01:37:53.776Z,6.50
2018-09-25T01:40:27.513Z,6.50
2018-09-25T01:43:01.340Z,6.40
2018-09-25T01:45:35.504Z,6.40
2018-09-25T01:48:09.425Z,6.40
2018-09-25T01:50:50.260Z,6.40
2018-09-25T01:53:24.200Z,6.40
2018-09-25T01:55:58.092Z,6.40
2018-09-25T01:58:31.964Z,6.40
2018-09-25T02:01:05.733Z,6.30
2018-09-25T02:03:39.733Z,6.30
2018-09-25T02:06:13.638Z,6.30
2018-09-25T02:08:47.416Z,6.30
2018-09-25T02:11:21.271Z,6.20
2018-09-25T02:13:55.170Z,6.20
2018-09-25T02:16:28.948Z,6.20
2018-09-25T02:19:02.796Z,6.20
2018-09-25T02:21:36.560Z,6.20
2018-09-25T02:24:10.173Z,6.20
2018-09-25T02:26:44.770Z,6.20
2018-09-25T02:29:18.628Z,6.20
2018-09-25T02:31:52.492Z,6.30
2018-09-25T02:34:26.329Z,6.30
2018-09-25T02:37:00.108Z,6.20
2018-09-25T02:39:34.009Z,6.20
2018-09-25T02:42:07.829Z,6.20
2018-09-25T02:44:41.801Z,6.20
2018-09-25T02:47:15.722Z,6.10
2018-09-25T02:49:49.465Z,6.10
2018-09-25T02:52:23.296Z,6.10
2018-09-25T02:54:57.145Z,6.20
2018-09-25T02:57:30.950Z,6.10
2018-09-25T03:00:04.640Z,6.10
2018-09-25T03:02:38.500Z,6.10
2018-09-25T03:05:12.398Z,6.10
2018-09-25T03:07:46.181Z,6.10
2018-09-25T03:10:20.000Z,6.10
2018-09-25T03:12:53.805Z,6.00
2018-09-25T03:15:27.750Z,6.00
2018-09-25T03:18:01.494Z,6.00
2018-09-25T03:20:35.433Z,6.00
2018-09-25T03:23:09.231Z,5.90
2018-09-25T03:25:43.170Z,5.90
2018-09-25T03:28:17.066Z,6.00
2018-09-25T03:30:51.168Z,5.90
2018-09-25T03:33:25.072Z,5.90
2018-09-25T03:35:58.863Z,5.90
2018-09-25T03:38:32.559Z,5.90
2018-09-25T03:41:06.495Z,5.90
2018-09-25T03:43:40.372Z,5.90
2018-09-25T03:46:14.213Z,5.80
2018-09-25T03:48:47.912Z,5.90
2018-09-25T03:51:21.604Z,5.90
2018-09-25T03:53:55.511Z,5.80
2018-09-25T03:56:29.296Z,5.90
2018-09-25T03:59:03.137Z,5.80
2018-09-25T04:01:36.935Z,5.80
2018-09-25T04:04:10.616Z,5.80
2018-09-25T04:06:44.551Z,5.80
2018-09-25T04:09:18.548Z,5.80
2018-09-25T04:11:52.335Z,5.80
2018-09-25T04:14:25.884Z,5.80
2018-09-25T04:16:59.645Z,5.80
2018-09-25T04:19:33.598Z,5.80
2018-09-25T04:22:07.513Z,5.70
2018-09-25T04:24:41.289Z,5.70
2018-09-25T04:27:15.213Z,5.70
2018-09-25T04:29:49.024Z,5.70
2018-09-25T04:32:22.880Z,5.70
2018-09-25T04:34:56.640Z,5.70
2018-09-25T04:37:31.209Z,5.70
2018-09-25T04:40:04.908Z,5.70
2018-09-25T04:42:38.729Z,5.60
2018-09-25T04:45:12.789Z,5.60
2018-09-25T04:47:46.645Z,5.60
2018-09-25T04:50:20.488Z,5.60
2018-09-25T04:52:54.184Z,5.60
2018-09-25T04:55:28.762Z,5.60
2018-09-25T04:58:02.737Z,5.60
2018-09-25T05:00:36.594Z,5.70
2018-09-25T05:03:10.363Z,5.70
2018-09-25T05:05:44.259Z,5.60
2018-09-25T05:08:18.093Z,5.60
2018-09-25T05:10:52.568Z,5.60
2018-09-25T05:13:26.445Z,5.60
2018-09-25T05:16:00.241Z,5.60
2018-09-25T05:18:34.136Z,5.60
2018-09-25T05:21:08.093Z,5.60
2018-09-25T05:23:41.856Z,5.60
2018-09-25T05:26:15.683Z,5.70
2018-09-25T05:28:49.714Z,5.70
2018-09-25T05:31:23.617Z,5.70
2018-09-25T05:33:57.481Z,5.70
2018-09-25T05:36:31.421Z,5.70
2018-09-25T05:39:05.336Z,5.70
2018-09-25T05:41:41.258Z,5.80
2018-09-25T05:44:16.147Z,5.80
2018-09-25T05:49:41.655Z,5.80
2018-09-25T05:52:15.413Z,5.80
2018-09-25T05:54:49.021Z,5.80
2018-09-25T05:57:22.804Z,5.80
2018-09-25T05:59:56.508Z,5.90
2018-09-25T06:02:30.294Z,5.90
2018-09-25T06:05:04.050Z,6.00
2018-09-25T06:07:37.813Z,6.00
2018-09-25T06:10:11.749Z,6.00
2018-09-25T06:12:45.566Z,6.10
2018-09-25T06:15:19.177Z,6.20
2018-09-25T06:17:53.087Z,6.20
2018-09-25T06:20:26.741Z,6.30
2018-09-25T06:23:00.752Z,6.30
2018-09-25T06:25:34.545Z,6.40
2018-09-25T06:28:08.292Z,6.40
2018-09-25T06:30:42.192Z,6.40
2018-09-25T06:33:15.955Z,6.50
2018-09-25T06:35:49.806Z,6.50
2018-09-25T06:38:23.691Z,6.60
2018-09-25T06:40:57.742Z,6.60
2018-09-25T06:43:31.392Z,6.80
2018-09-25T06:46:05.380Z,6.80
2018-09-25T06:48:39.096Z,6.90
2018-09-25T06:51:12.957Z,7.00
2018-09-25T06:53:47.532Z,7.10
2018-09-25T06:56:21.311Z,7.10
2018-09-25T06:58:55.180Z,7.20
2018-09-25T07:01:29.071Z,7.20
2018-09-25T07:04:02.876Z,7.30
2018-09-25T07:06:36.729Z,7.30
2018-09-25T07:09:12.596Z,7.40
2018-09-25T07:11:47.273Z,7.50
2018-09-25T07:14:21.068Z,7.60
2018-09-25T14:09:40.302Z,7.70
2018-09-25T14:22:29.056Z,25.40
2018-09-25T14:25:02.777Z,25.40
2018-09-25T14:27:36.596Z,26.20
2018-09-25T14:30:10.573Z,26.20
2018-09-25T14:32:44.335Z,26.20
2018-09-25T14:35:19.150Z,26.90
2018-09-25T14:37:52.943Z,27.10
2018-09-25T14:40:26.732Z,28.10
2018-09-25T14:43:01.279Z,29.80
2018-09-25T14:45:35.273Z,29.50
2018-09-25T14:48:09.152Z,27.60
2018-09-25T14:50:42.853Z,26.60
2018-09-25T14:55:50.376Z,25.40
2018-09-25T14:58:24.277Z,25.10
2018-09-25T15:00:58.258Z,25.90
